Time;durP1;ratioP1;P1;durP2;ratioP2;P2;SDS_P1;SDS_P2;PMS_P1;PMS_P2;Temp;Humidity;BMP_temperature;BMP_pressure;BME280_temperature;BME280_humidity;BME280_pressure;Samples;Min_cycle;Max_cycle;Signal;HPM_P1;HPM_P2
2022/02/11 00:01:03;;;;;;;2.80;2.25;;;;;;;;;;5098516;28;20224;-84
2022/02/11 00:06:28;;;;;;;4.00;2.88;;;;;;;;;;5092801;28;20191;-83
2022/02/11 00:08:55;;;;;;;3.80;2.65;;;;;;;;;;5113266;28;20623;-86
2022/02/11 00:11:27;;;;;;;4.50;3.00;;;;;;;;;;5109082;28;20213;-84
2022/02/11 00:13:54;;;;;;;4.68;3.80;;;;;;;;;;5113561;28;20204;-83
2022/02/11 00:16:21;;;;;;;7.20;3.70;;;;;;;;;;5098143;28;20208;-83
2022/02/11 00:18:50;;;;;;;3.67;3.30;;;;;;;;;;5101316;28;20185;-84
2022/02/11 00:21:18;;;;;;;4.25;3.72;;;;;;;;;;5099207;28;20217;-84
2022/02/11 00:23:45;;;;;;;5.43;4.60;;;;;;;;;;5092297;28;20201;-84
2022/02/11 00:26:13;;;;;;;6.55;4.03;;;;;;;;;;5089148;28;20190;-84
2022/02/11 00:34:04;;;;;;;6.45;4.30;;;;;;;;;;5100481;28;20209;-84
2022/02/11 00:36:38;;;;;;;4.90;3.75;;;;;;;;;;5098513;28;20228;-83
2022/02/11 00:39:24;;;;;;;5.82;4.45;;;;;;;;;;5094710;28;20654;-85
2022/02/11 01:03:28;;;;;;;9.55;4.45;;;;;;;;;;5108900;28;20255;-83
2022/02/11 01:05:59;;;;;;;6.40;4.53;;;;;;;;;;5109784;28;20200;-82
2022/02/11 01:08:26;;;;;;;8.30;4.03;;;;;;;;;;5113050;28;20193;-83
2022/02/11 01:10:53;;;;;;;6.78;4.45;;;;;;;;;;5109187;28;20217;-81
2022/02/11 01:13:20;;;;;;;5.63;4.15;;;;;;;;;;5090071;28;20529;-82
2022/02/11 01:15:55;;;;;;;6.20;4.80;;;;;;;;;;5076469;28;20213;-81
2022/02/11 01:18:22;;;;;;;6.25;4.68;;;;;;;;;;5091816;28;20545;-83
2022/02/11 01:20:54;;;;;;;8.70;5.45;;;;;;;;;;5096929;28;20216;-84
2022/02/11 01:23:40;;;;;;;6.65;4.78;;;;;;;;;;5099155;28;20199;-81
2022/02/11 01:26:20;;;;;;;6.28;5.18;;;;;;;;;;5096753;28;20219;-82
2022/02/11 01:29:12;;;;;;;13.82;5.90;;;;;;;;;;5111027;28;20215;-84
2022/02/11 01:31:52;;;;;;;6.90;5.10;;;;;;;;;;5109088;28;20801;-84
2022/02/11 01:34:39;;;;;;;8.63;5.28;;;;;;;;;;5071442;28;20228;-83
2022/02/11 01:37:22;;;;;;;11.23;5.82;;;;;;;;;;5083284;28;20728;-80
2022/02/11 01:40:17;;;;;;;9.00;6.80;;;;;;;;;;5091943;28;20224;-81
2022/02/11 01:45:47;;;;;;;15.63;7.00;;;;;;;;;;5104491;28;20202;-81
2022/02/11 01:51:12;;;;;;;8.77;6.72;;;;;;;;;;5109479;28;20212;-81
2022/02/11 01:53:48;;;;;;;7.05;5.70;;;;;;;;;;5109383;28;20203;-83
2022/02/11 01:56:35;;;;;;;8.57;6.80;;;;;;;;;;5093134;28;20615;-83
2022/02/11 02:05:06;;;;;;;16.67;7.00;;;;;;;;;;5106581;28;20192;-83
2022/02/11 02:13:08;;;;;;;10.77;7.47;;;;;;;;;;5098877;28;20258;-83
2022/02/11 02:16:03;;;;;;;11.82;7.80;;;;;;;;;;5097334;28;20208;-83
2022/02/11 02:19:09;;;;;;;13.00;7.38;;;;;;;;;;5096355;28;20190;-81
2022/02/11 02:24:23;;;;;;;12.90;7.60;;;;;;;;;;5090178;28;20558;-82
2022/02/11 02:27:10;;;;;;;9.55;7.47;;;;;;;;;;5091233;28;20188;-80
2022/02/11 02:35:22;;;;;;;10.88;8.02;;;;;;;;;;5095415;28;20224;-82
2022/02/11 02:38:18;;;;;;;13.13;9.32;;;;;;;;;;5109200;28;20204;-84
2022/02/11 02:50:10;;;;;;;12.90;8.40;;;;;;;;;;5105164;28;20224;-83
2022/02/11 02:57:10;;;;;;;14.90;9.10;;;;;;;;;;5110190;28;20195;-82
2022/02/11 02:59:59;;;;;;;17.40;11.32;;;;;;;;;;5109585;28;20554;-84
2022/02/11 03:34:52;;;;;;;17.95;11.73;;;;;;;;;;5110677;28;20229;-82
2022/02/11 03:51:13;;;;;;;19.80;11.70;;;;;;;;;;5113925;28;20308;-83
2022/02/11 03:57:00;;;;;;;19.48;11.88;;;;;;;;;;5109773;28;20206;-79
2022/02/11 04:08:19;;;;;;;20.48;10.38;;;;;;;;;;5107611;28;20607;-83
2022/02/11 04:21:42;;;;;;;21.08;10.85;;;;;;;;;;5093812;28;20232;-82
2022/02/11 04:56:22;;;;;;;22.05;9.50;;;;;;;;;;5112207;28;20538;-81
2022/02/11 05:01:30;;;;;;;19.67;9.02;;;;;;;;;;5093795;28;20224;-85
2022/02/11 05:03:57;;;;;;;17.45;10.00;;;;;;;;;;5092240;28;20651;-84
2022/02/11 05:06:25;;;;;;;15.43;8.60;;;;;;;;;;5099670;28;20197;-82
2022/02/11 05:08:56;;;;;;;15.90;8.80;;;;;;;;;;5102220;28;20185;-83
2022/02/11 05:11:23;;;;;;;19.25;8.02;;;;;;;;;;5111122;28;20572;-81
2022/02/11 05:13:51;;;;;;;16.63;8.98;;;;;;;;;;5111664;28;20196;-81
2022/02/11 05:16:18;;;;;;;15.60;7.50;;;;;;;;;;5094313;28;20193;-82
2022/02/11 05:18:45;;;;;;;17.48;7.90;;;;;;;;;;5092221;28;20207;-81
2022/02/11 05:21:12;;;;;;;14.15;8.27;;;;;;;;;;5094280;28;20208;-82
2022/02/11 05:23:39;;;;;;;15.30;9.07;;;;;;;;;;5097778;28;20946;-82
2022/02/11 05:26:07;;;;;;;15.00;7.30;;;;;;;;;;5104873;28;20200;-82
2022/02/11 05:28:35;;;;;;;14.98;7.15;;;;;;;;;;5112073;28;20200;-82
2022/02/11 05:31:02;;;;;;;16.45;8.00;;;;;;;;;;5112489;28;20235;-82
2022/02/11 05:33:32;;;;;;;18.33;8.52;;;;;;;;;;5111434;28;20201;-82
2022/02/11 05:35:59;;;;;;;15.35;8.20;;;;;;;;;;5108799;28;20220;-84
2022/02/11 05:38:26;;;;;;;14.82;7.72;;;;;;;;;;5095907;28;20197;-82
2022/02/11 05:40:54;;;;;;;11.95;7.40;;;;;;;;;;5091763;28;20217;-80
2022/02/11 05:43:22;;;;;;;15.07;6.63;;;;;;;;;;5104102;28;20226;-83
2022/02/11 05:45:49;;;;;;;14.65;6.75;;;;;;;;;;5098911;28;20205;-82
2022/02/11 05:48:16;;;;;;;14.93;7.75;;;;;;;;;;5095981;28;21177;-81
2022/02/11 05:50:43;;;;;;;12.85;6.68;;;;;;;;;;5091098;28;20220;-82
2022/02/11 05:53:11;;;;;;;13.45;6.10;;;;;;;;;;5091442;28;20200;-83
2022/02/11 05:55:38;;;;;;;18.55;7.78;;;;;;;;;;5091806;28;20270;-83
2022/02/11 05:58:05;;;;;;;18.98;6.22;;;;;;;;;;5092075;28;20296;-83
2022/02/11 06:00:33;;;;;;;10.70;6.30;;;;;;;;;;5091651;28;20217;-84
2022/02/11 06:03:01;;;;;;;10.40;6.00;;;;;;;;;;5108764;28;20200;-82
2022/02/11 06:05:28;;;;;;;20.00;6.10;;;;;;;;;;5113267;28;20657;-82
2022/02/11 06:07:55;;;;;;;13.85;7.22;;;;;;;;;;5098264;28;20204;-82
2022/02/11 06:10:22;;;;;;;16.95;6.00;;;;;;;;;;5098652;28;20232;-83
2022/02/11 06:12:50;;;;;;;10.20;6.15;;;;;;;;;;5108536;28;20197;-82
2022/02/11 06:15:17;;;;;;;11.70;6.22;;;;;;;;;;5118228;28;20189;-83
2022/02/11 06:17:45;;;;;;;10.55;5.60;;;;;;;;;;5125296;28;20192;-82
2022/02/11 06:20:12;;;;;;;12.00;6.25;;;;;;;;;;5110926;28;20217;-84
2022/02/11 06:22:43;;;;;;;14.98;5.68;;;;;;;;;;5102114;28;20232;-85
2022/02/11 06:25:10;;;;;;;11.55;6.28;;;;;;;;;;5093187;28;20197;-80
2022/02/11 06:27:37;;;;;;;15.88;5.97;;;;;;;;;;5093434;28;20291;-84
2022/02/11 06:30:05;;;;;;;9.25;5.68;;;;;;;;;;5092040;28;20303;-83
2022/02/11 06:32:32;;;;;;;10.68;5.43;;;;;;;;;;5097894;28;20185;-84
2022/02/11 06:35:01;;;;;;;14.95;6.32;;;;;;;;;;5093724;28;20217;-82
2022/02/11 06:37:28;;;;;;;12.18;6.28;;;;;;;;;;5109902;28;20215;-83
2022/02/11 06:39:55;;;;;;;12.40;5.03;;;;;;;;;;5109730;28;20223;-81
2022/02/11 06:42:23;;;;;;;11.05;5.07;;;;;;;;;;5109359;28;20216;-81
2022/02/11 06:44:51;;;;;;;15.05;5.60;;;;;;;;;;5094270;28;20201;-81
2022/02/11 06:47:19;;;;;;;9.55;5.43;;;;;;;;;;5098991;28;20598;-83
2022/02/11 06:49:46;;;;;;;13.15;5.15;;;;;;;;;;5097707;28;20620;-84
2022/02/11 06:52:14;;;;;;;13.77;5.88;;;;;;;;;;5092142;28;20672;-81
2022/02/11 06:54:42;;;;;;;17.55;5.45;;;;;;;;;;5101587;28;20199;-84
2022/02/11 06:57:12;;;;;;;6.80;4.05;;;;;;;;;;5110955;28;20196;-82
2022/02/11 06:59:39;;;;;;;13.55;4.80;;;;;;;;;;5110318;28;20223;-81
2022/02/11 07:02:09;;;;;;;10.32;4.50;;;;;;;;;;5109981;28;20212;-81
2022/02/11 07:04:36;;;;;;;10.18;5.05;;;;;;;;;;5092706;28;20239;-81
2022/02/11 07:07:03;;;;;;;10.35;5.40;;;;;;;;;;5093583;28;20220;-82
2022/02/11 07:09:31;;;;;;;11.88;4.72;;;;;;;;;;5107753;28;21548;-84
2022/02/11 07:11:59;;;;;;;9.38;4.70;;;;;;;;;;5098086;28;20193;-83
2022/02/11 07:14:29;;;;;;;6.20;4.07;;;;;;;;;;5103457;28;20215;-82
2022/02/11 07:16:56;;;;;;;8.85;4.63;;;;;;;;;;5110527;28;20585;-79
2022/02/11 07:19:23;;;;;;;8.07;4.80;;;;;;;;;;5110141;28;20654;-82
2022/02/11 07:21:50;;;;;;;8.80;3.85;;;;;;;;;;5100016;28;20243;-81
2022/02/11 07:24:17;;;;;;;11.23;4.30;;;;;;;;;;5107454;28;20189;-82
2022/02/11 07:26:45;;;;;;;12.02;4.72;;;;;;;;;;5094925;28;20308;-82
2022/02/11 07:29:15;;;;;;;11.35;3.95;;;;;;;;;;5097281;28;20612;-80
2022/02/11 07:31:42;;;;;;;8.68;4.25;;;;;;;;;;5097741;28;20889;-83
2022/02/11 07:34:09;;;;;;;10.02;3.85;;;;;;;;;;5088845;28;20205;-82
2022/02/11 07:36:36;;;;;;;9.85;4.10;;;;;;;;;;5089859;28;20221;-79
2022/02/11 07:39:05;;;;;;;8.80;3.30;;;;;;;;;;5103397;28;20200;-83
2022/02/11 07:41:32;;;;;;;17.98;4.68;;;;;;;;;;5107013;28;20229;-83
2022/02/11 07:44:00;;;;;;;7.82;3.85;;;;;;;;;;5097848;28;20201;-83
2022/02/11 07:46:28;;;;;;;11.77;3.70;;;;;;;;;;5071066;28;20533;-83
2022/02/11 07:48:56;;;;;;;11.10;3.72;;;;;;;;;;5106503;28;20198;-82
2022/02/11 07:51:23;;;;;;;7.88;3.35;;;;;;;;;;5099158;28;20218;-82
2022/02/11 07:53:51;;;;;;;7.72;3.92;;;;;;;;;;5096278;28;20292;-81
2022/02/11 07:56:18;;;;;;;6.95;3.53;;;;;;;;;;5103588;28;20192;-78
2022/02/11 07:58:45;;;;;;;8.68;3.13;;;;;;;;;;5104626;28;20208;-80
2022/02/11 08:01:16;;;;;;;10.05;3.70;;;;;;;;;;5110468;28;20674;-78
2022/02/11 08:03:43;;;;;;;13.88;4.38;;;;;;;;;;5114204;28;20610;-84
2022/02/11 08:06:11;;;;;;;9.95;2.80;;;;;;;;;;5107672;28;20198;-82
2022/02/11 08:08:38;;;;;;;13.52;4.03;;;;;;;;;;5094307;28;20197;-84
2022/02/11 08:11:05;;;;;;;14.02;4.47;;;;;;;;;;5099545;28;20209;-83
2022/02/11 08:13:33;;;;;;;8.60;4.25;;;;;;;;;;5106747;27;20280;-83
2022/02/11 08:16:00;;;;;;;15.52;5.53;;;;;;;;;;5100754;28;20292;-79
2022/02/11 08:18:29;;;;;;;11.23;3.63;;;;;;;;;;5089058;28;20563;-81
2022/02/11 08:20:56;;;;;;;12.30;3.90;;;;;;;;;;5071439;28;20225;-81
2022/02/11 08:23:26;;;;;;;15.98;4.60;;;;;;;;;;5073580;28;20213;-81
2022/02/11 08:25:53;;;;;;;11.35;4.35;;;;;;;;;;5105198;28;20207;-81
2022/02/11 08:28:21;;;;;;;10.10;3.75;;;;;;;;;;5091373;28;20189;-83
2022/02/11 08:30:49;;;;;;;11.05;4.65;;;;;;;;;;5093116;28;20217;-80
2022/02/11 08:33:17;;;;;;;12.95;4.45;;;;;;;;;;5098924;28;20280;-80
2022/02/11 08:35:46;;;;;;;14.80;4.57;;;;;;;;;;5096079;28;20228;-82
2022/02/11 08:38:13;;;;;;;16.38;5.85;;;;;;;;;;5091589;28;20204;-80
2022/02/11 08:40:40;;;;;;;14.95;4.55;;;;;;;;;;5092043;28;20209;-81
2022/02/11 08:43:07;;;;;;;9.88;3.40;;;;;;;;;;5093218;28;20227;-81
2022/02/11 08:45:37;;;;;;;11.15;3.95;;;;;;;;;;5101751;28;20267;-81
2022/02/11 08:48:04;;;;;;;8.65;3.55;;;;;;;;;;5088636;28;20292;-80
2022/02/11 08:50:32;;;;;;;15.70;4.38;;;;;;;;;;5098284;28;20236;-82
2022/02/11 08:53:00;;;;;;;8.55;3.65;;;;;;;;;;5096818;28;20196;-81
2022/02/11 08:55:27;;;;;;;11.38;5.00;;;;;;;;;;5090969;28;20197;-84
2022/02/11 08:57:59;;;;;;;15.75;4.75;;;;;;;;;;5089786;28;20201;-80
2022/02/11 09:00:26;;;;;;;12.93;4.25;;;;;;;;;;5105407;28;20212;-80
2022/02/11 09:02:53;;;;;;;13.90;4.43;;;;;;;;;;5111217;28;20216;-79
2022/02/11 09:05:21;;;;;;;11.25;4.22;;;;;;;;;;5090369;27;20196;-79
2022/02/11 09:07:49;;;;;;;13.65;3.55;;;;;;;;;;5094085;28;20230;-78
2022/02/11 09:10:19;;;;;;;10.02;4.93;;;;;;;;;;5097451;28;20556;-83
2022/02/11 09:12:46;;;;;;;13.80;4.40;;;;;;;;;;5094182;28;20190;-82
2022/02/11 09:15:13;;;;;;;9.95;5.05;;;;;;;;;;5090205;28;20204;-83
2022/02/11 09:17:40;;;;;;;18.13;5.53;;;;;;;;;;5091402;28;20200;-82
2022/02/11 09:20:08;;;;;;;22.13;5.20;;;;;;;;;;5091340;28;20218;-81
2022/02/11 09:22:35;;;;;;;15.85;5.57;;;;;;;;;;5090962;28;20698;-82
2022/02/11 09:25:02;;;;;;;14.60;5.15;;;;;;;;;;5103291;28;20204;-81
2022/02/11 09:27:31;;;;;;;14.20;4.68;;;;;;;;;;5096492;28;20205;-82
2022/02/11 09:29:58;;;;;;;8.68;3.83;;;;;;;;;;5105581;28;20219;-83
2022/02/11 09:32:25;;;;;;;12.55;3.88;;;;;;;;;;5094948;28;20221;-79
2022/02/11 09:34:52;;;;;;;14.75;4.95;;;;;;;;;;5095489;28;20197;-86
2022/02/11 09:37:19;;;;;;;17.90;4.15;;;;;;;;;;5097210;28;20200;-83
2022/02/11 09:39:47;;;;;;;11.65;3.80;;;;;;;;;;5090787;28;20209;-82
2022/02/11 09:42:15;;;;;;;11.90;4.30;;;;;;;;;;5089835;28;20216;-81
2022/02/11 09:44:45;;;;;;;20.88;4.68;;;;;;;;;;5097695;28;20685;-79
2022/02/11 09:47:12;;;;;;;13.40;4.00;;;;;;;;;;5099987;28;20196;-82
2022/02/11 09:49:39;;;;;;;9.35;3.55;;;;;;;;;;5092523;28;20228;-83
2022/02/11 09:52:07;;;;;;;14.68;4.20;;;;;;;;;;5098108;28;20665;-85
2022/02/11 09:54:34;;;;;;;10.18;3.90;;;;;;;;;;5108305;28;20215;-84
2022/02/11 09:57:01;;;;;;;14.52;3.88;;;;;;;;;;5106028;28;20193;-83
2022/02/11 09:59:28;;;;;;;9.55;4.10;;;;;;;;;;5095017;28;20197;-82
2022/02/11 10:01:58;;;;;;;15.63;3.50;;;;;;;;;;5092710;28;20209;-84
2022/02/11 10:04:25;;;;;;;11.48;3.30;;;;;;;;;;5092084;28;20565;-86
2022/02/11 10:06:53;;;;;;;9.80;3.92;;;;;;;;;;5096439;28;20184;-83
2022/02/11 10:09:22;;;;;;;12.93;4.63;;;;;;;;;;5097410;28;20207;-83
2022/02/11 10:11:49;;;;;;;11.80;3.53;;;;;;;;;;5092858;28;20579;-84
2022/02/11 10:14:22;;;;;;;17.02;4.47;;;;;;;;;;5090313;28;20212;-83
2022/02/11 10:16:59;;;;;;;14.70;4.18;;;;;;;;;;5094231;28;20196;-80
2022/02/11 10:19:43;;;;;;;13.75;5.30;;;;;;;;;;5101156;28;20201;-83
2022/02/11 10:22:12;;;;;;;9.93;3.38;;;;;;;;;;5088514;28;20212;-83
2022/02/11 10:24:39;;;;;;;9.88;4.70;;;;;;;;;;5102610;28;20188;-79
2022/02/11 10:27:21;;;;;;;10.00;4.27;;;;;;;;;;5103138;28;20681;-83
2022/02/11 10:29:48;;;;;;;12.48;3.00;;;;;;;;;;5097769;28;20829;-80
2022/02/11 10:32:17;;;;;;;13.20;3.55;;;;;;;;;;5094136;28;20205;-77
2022/02/11 10:34:51;;;;;;;15.73;3.50;;;;;;;;;;5088607;28;20208;-80
2022/02/11 10:37:18;;;;;;;15.88;4.13;;;;;;;;;;5088086;28;20213;-86
2022/02/11 10:39:55;;;;;;;19.63;4.23;;;;;;;;;;5090546;28;20225;-79
2022/02/11 10:42:22;;;;;;;14.80;4.20;;;;;;;;;;5096777;28;20482;-78
2022/02/11 10:44:49;;;;;;;11.90;3.17;;;;;;;;;;5096230;28;20459;-80
2022/02/11 10:47:18;;;;;;;13.23;4.00;;;;;;;;;;5094013;28;20192;-76
2022/02/11 10:49:46;;;;;;;13.32;3.85;;;;;;;;;;5098970;28;20963;-80
2022/02/11 10:52:14;;;;;;;7.38;3.03;;;;;;;;;;5099959;28;20208;-79
2022/02/11 10:54:42;;;;;;;8.20;2.97;;;;;;;;;;5101949;28;20223;-80
2022/02/11 10:57:11;;;;;;;12.93;3.63;;;;;;;;;;5092618;28;20572;-80
2022/02/11 10:59:39;;;;;;;10.80;2.73;;;;;;;;;;5089166;28;20483;-81
2022/02/11 11:02:07;;;;;;;10.50;5.10;;;;;;;;;;5087458;28;20944;-77
2022/02/11 11:04:36;;;;;;;8.60;2.40;;;;;;;;;;5093440;28;20444;-83
2022/02/11 11:07:05;;;;;;;7.68;2.35;;;;;;;;;;5096705;28;21126;-80
2022/02/11 11:09:32;;;;;;;14.40;3.47;;;;;;;;;;5107830;28;20574;-82
2022/02/11 11:12:00;;;;;;;9.23;2.88;;;;;;;;;;5109883;28;20438;-82
2022/02/11 11:14:30;;;;;;;9.43;2.95;;;;;;;;;;5086925;28;20494;-84
2022/02/11 11:17:02;;;;;;;7.70;3.25;;;;;;;;;;5104027;28;20204;-84
2022/02/11 11:19:33;;;;;;;12.13;3.60;;;;;;;;;;5088346;28;20216;-83
2022/02/11 11:22:14;;;;;;;11.07;2.97;;;;;;;;;;5095386;28;20454;-85
2022/02/11 11:24:48;;;;;;;8.48;3.25;;;;;;;;;;5095511;28;20462;-84
2022/02/11 11:27:32;;;;;;;8.45;2.60;;;;;;;;;;5096795;28;20208;-86
2022/02/11 11:30:14;;;;;;;10.00;2.97;;;;;;;;;;5088312;28;20641;-80
2022/02/11 11:32:42;;;;;;;16.50;3.38;;;;;;;;;;5088541;28;20194;-81
2022/02/11 11:35:09;;;;;;;8.35;3.00;;;;;;;;;;5088962;28;20690;-82
2022/02/11 11:37:41;;;;;;;15.05;2.95;;;;;;;;;;5092360;28;20213;-81
2022/02/11 11:40:23;;;;;;;10.93;2.63;;;;;;;;;;5101572;27;20249;-80
2022/02/11 11:43:10;;;;;;;14.60;3.70;;;;;;;;;;5104898;28;20474;-83
2022/02/11 11:45:39;;;;;;;8.50;2.60;;;;;;;;;;5098620;28;20443;-81
2022/02/11 11:48:14;;;;;;;8.82;3.00;;;;;;;;;;5091843;28;20200;-82
2022/02/11 11:50:41;;;;;;;12.70;3.22;;;;;;;;;;5098072;28;20212;-80
2022/02/11 11:59:16;;;;;;;14.67;4.27;;;;;;;;;;5168138;27;20678;-80
2022/02/11 12:01:58;;;;;;;11.63;2.92;;;;;;;;;;5147917;27;20452;-80
2022/02/11 12:04:26;;;;;;;9.98;3.78;;;;;;;;;;5144194;27;20248;-81
2022/02/11 12:06:54;;;;;;;11.23;2.80;;;;;;;;;;5144711;27;20188;-83
2022/02/11 12:09:22;;;;;;;6.00;2.58;;;;;;;;;;5144079;27;20486;-78
2022/02/11 12:11:49;;;;;;;13.85;3.22;;;;;;;;;;5148445;27;20192;-82
2022/02/11 12:14:18;;;;;;;10.65;2.28;;;;;;;;;;5133036;27;20660;-85
2022/02/11 12:16:46;;;;;;;9.18;2.67;;;;;;;;;;5151585;27;20194;-88
2022/02/11 12:19:13;;;;;;;9.48;3.38;;;;;;;;;;5152620;27;20514;-84
2022/02/11 12:21:41;;;;;;;11.95;3.50;;;;;;;;;;5167509;27;20190;-82
2022/02/11 12:29:32;;;;;;;9.02;2.75;;;;;;;;;;5146235;27;20658;-85
2022/02/11 12:32:00;;;;;;;5.95;2.70;;;;;;;;;;5149068;27;20200;-84
2022/02/11 12:34:27;;;;;;;10.93;3.10;;;;;;;;;;5144968;27;20197;-84
2022/02/11 12:37:00;;;;;;;4.35;2.30;;;;;;;;;;5141004;27;20287;-79
2022/02/11 12:39:27;;;;;;;11.52;2.78;;;;;;;;;;5125998;28;20188;-81
2022/02/11 12:41:56;;;;;;;8.77;3.10;;;;;;;;;;5126040;28;20192;-78
2022/02/11 12:44:24;;;;;;;8.77;3.33;;;;;;;;;;5143133;27;20197;-84
2022/02/11 12:46:53;;;;;;;9.53;2.60;;;;;;;;;;5147628;27;20191;-79
2022/02/11 12:49:20;;;;;;;8.30;2.28;;;;;;;;;;5143690;27;20813;-79
2022/02/11 12:51:49;;;;;;;9.23;3.60;;;;;;;;;;5146807;27;20195;-80
2022/02/11 12:54:16;;;;;;;10.05;3.22;;;;;;;;;;5140397;27;20199;-79
2022/02/11 12:56:44;;;;;;;5.40;1.90;;;;;;;;;;5154177;27;20198;-80
2022/02/11 12:59:11;;;;;;;6.95;2.30;;;;;;;;;;5147125;27;20226;-83
2022/02/11 13:01:39;;;;;;;9.18;2.35;;;;;;;;;;5127237;27;20196;-81
2022/02/11 13:04:07;;;;;;;15.50;3.10;;;;;;;;;;5127105;27;20192;-81
2022/02/11 13:06:34;;;;;;;9.75;2.55;;;;;;;;;;5128733;27;20195;-80
2022/02/11 13:09:02;;;;;;;9.27;2.60;;;;;;;;;;5142141;27;20191;-81
2022/02/11 13:11:29;;;;;;;9.65;2.88;;;;;;;;;;5114251;27;20301;-82
2022/02/11 13:14:04;;;;;;;7.75;2.58;;;;;;;;;;5114473;28;20292;-80
2022/02/11 13:16:33;;;;;;;10.40;2.53;;;;;;;;;;5134172;27;20184;-78
2022/02/11 13:19:11;;;;;;;5.40;2.42;;;;;;;;;;5139969;27;20215;-81
2022/02/11 13:21:38;;;;;;;8.43;2.38;;;;;;;;;;5131790;27;20215;-80
2022/02/11 13:24:06;;;;;;;6.43;2.00;;;;;;;;;;5131830;27;20195;-79
2022/02/11 13:26:33;;;;;;;8.00;2.67;;;;;;;;;;5133093;27;20192;-79
2022/02/11 13:29:00;;;;;;;4.65;2.40;;;;;;;;;;5131727;27;20649;-82
2022/02/11 13:31:29;;;;;;;7.90;2.35;;;;;;;;;;5127038;27;20216;-78
2022/02/11 13:34:04;;;;;;;7.43;2.85;;;;;;;;;;5121607;27;20646;-79
2022/02/11 13:36:32;;;;;;;8.32;2.78;;;;;;;;;;5112004;28;20210;-82
2022/02/11 13:39:01;;;;;;;9.15;2.67;;;;;;;;;;5135965;27;20287;-79
2022/02/11 13:41:29;;;;;;;14.80;2.90;;;;;;;;;;5135454;27;20211;-79
2022/02/11 13:43:57;;;;;;;8.23;2.75;;;;;;;;;;5128137;27;20503;-82
2022/02/11 13:46:25;;;;;;;10.10;2.67;;;;;;;;;;5109890;28;20185;-81
2022/02/11 13:48:53;;;;;;;11.88;2.80;;;;;;;;;;5129272;27;20199;-86
2022/02/11 13:51:21;;;;;;;6.80;2.23;;;;;;;;;;5129499;27;20802;-84
2022/02/11 13:53:52;;;;;;;6.43;2.45;;;;;;;;;;5130543;27;20461;-81
2022/02/11 13:56:22;;;;;;;8.65;2.70;;;;;;;;;;5130590;27;20197;-81
2022/02/11 13:59:05;;;;;;;8.23;2.15;;;;;;;;;;5130633;27;20223;-79
2022/02/11 14:01:33;;;;;;;7.18;2.42;;;;;;;;;;5131465;27;20224;-82
2022/02/11 14:04:01;;;;;;;7.70;2.72;;;;;;;;;;5135136;27;22425;-81
2022/02/11 14:06:35;;;;;;;7.80;2.20;;;;;;;;;;5119080;27;20189;-82
2022/02/11 14:09:05;;;;;;;8.63;3.00;;;;;;;;;;5111228;28;20201;-78
2022/02/11 14:11:35;;;;;;;6.10;2.55;;;;;;;;;;5119056;27;20207;-78
2022/02/11 14:14:09;;;;;;;4.00;2.00;;;;;;;;;;5134423;27;20206;-83
2022/02/11 14:16:37;;;;;;;10.38;2.50;;;;;;;;;;5133465;27;20801;-80
2022/02/11 14:19:04;;;;;;;7.18;2.75;;;;;;;;;;5123561;27;20247;-82
2022/02/11 14:21:31;;;;;;;8.05;2.53;;;;;;;;;;5132190;27;20223;-80
2022/02/11 14:23:58;;;;;;;12.07;3.05;;;;;;;;;;5116505;27;20192;-81
2022/02/11 14:26:26;;;;;;;11.07;2.60;;;;;;;;;;5129430;27;20184;-81
2022/02/11 14:28:54;;;;;;;10.57;2.35;;;;;;;;;;5128892;27;20195;-83
2022/02/11 14:31:21;;;;;;;5.35;1.90;;;;;;;;;;5127961;27;20898;-82
2022/02/11 14:33:48;;;;;;;4.15;1.95;;;;;;;;;;5128672;27;20184;-83
2022/02/11 14:36:15;;;;;;;7.43;2.38;;;;;;;;;;5132632;27;20649;-86
2022/02/11 14:38:42;;;;;;;10.43;2.20;;;;;;;;;;5135170;27;20226;-84
2022/02/11 14:43:58;;;;;;;6.13;2.35;;;;;;;;;;5124703;27;20192;-80
2022/02/11 14:46:25;;;;;;;4.85;2.00;;;;;;;;;;5124789;27;20195;-82
2022/02/11 14:48:53;;;;;;;7.25;2.20;;;;;;;;;;5127467;27;20192;-82
2022/02/11 14:51:21;;;;;;;4.75;2.08;;;;;;;;;;5127950;27;20475;-81
2022/02/11 14:53:48;;;;;;;6.07;2.20;;;;;;;;;;5133364;27;20200;-81
2022/02/11 14:56:18;;;;;;;5.88;2.10;;;;;;;;;;5129641;27;20253;-80
2022/02/11 14:58:46;;;;;;;8.07;3.00;;;;;;;;;;5117324;27;20316;-83
2022/02/11 15:01:14;;;;;;;9.98;1.95;;;;;;;;;;5117142;27;20214;-83
2022/02/11 15:03:42;;;;;;;5.85;1.88;;;;;;;;;;5118329;27;20601;-81
2022/02/11 15:06:09;;;;;;;4.80;2.10;;;;;;;;;;5124255;27;20188;-83
2022/02/11 15:08:36;;;;;;;7.32;1.70;;;;;;;;;;5113343;27;20192;-83
2022/02/11 15:11:03;;;;;;;6.60;1.83;;;;;;;;;;5130407;27;20220;-82
2022/02/11 15:13:30;;;;;;;4.55;2.20;;;;;;;;;;5137325;27;20188;-83
2022/02/11 15:15:58;;;;;;;8.05;2.55;;;;;;;;;;5132740;27;20176;-84
2022/02/11 15:18:26;;;;;;;3.67;1.67;;;;;;;;;;5128411;27;20223;-84
2022/02/11 15:20:53;;;;;;;4.68;1.88;;;;;;;;;;5109635;27;20215;-80
2022/02/11 15:23:24;;;;;;;5.40;1.80;;;;;;;;;;5118373;27;20550;-84
2022/02/11 15:25:51;;;;;;;5.43;2.50;;;;;;;;;;5126239;27;20196;-83
2022/02/11 15:28:18;;;;;;;4.55;1.98;;;;;;;;;;5132799;27;20203;-80
2022/02/11 15:30:45;;;;;;;5.82;2.40;;;;;;;;;;5136102;27;20244;-82
2022/02/11 15:33:13;;;;;;;4.40;1.90;;;;;;;;;;5130618;27;20202;-80
2022/02/11 15:35:41;;;;;;;7.00;2.97;;;;;;;;;;5108457;28;20476;-80
2022/02/11 15:38:09;;;;;;;18.38;4.28;;;;;;;;;;5108968;28;20345;-84
2022/02/11 15:40:36;;;;;;;15.77;3.50;;;;;;;;;;5112503;27;20208;-81
2022/02/11 15:43:03;;;;;;;12.68;2.80;;;;;;;;;;5126764;27;20192;-80
2022/02/11 15:45:31;;;;;;;6.10;2.15;;;;;;;;;;5117237;27;20199;-80
2022/02/11 15:47:58;;;;;;;4.32;1.98;;;;;;;;;;5111709;28;20556;-77
2022/02/11 15:50:25;;;;;;;7.68;2.15;;;;;;;;;;5121096;27;20218;-83
2022/02/11 15:52:54;;;;;;;7.15;2.15;;;;;;;;;;5131314;27;20203;-82
2022/02/11 15:55:21;;;;;;;13.70;3.20;;;;;;;;;;5133237;27;20195;-78
2022/02/11 15:57:48;;;;;;;7.72;2.97;;;;;;;;;;5128599;28;20719;-81
2022/02/11 16:00:16;;;;;;;12.80;2.30;;;;;;;;;;5129593;28;20231;-82
2022/02/11 16:02:43;;;;;;;5.78;2.20;;;;;;;;;;5129765;28;20207;-82
2022/02/11 16:05:11;;;;;;;6.97;2.33;;;;;;;;;;5128759;28;20554;-80
2022/02/11 16:07:39;;;;;;;7.05;1.80;;;;;;;;;;5129320;28;20195;-81
2022/02/11 16:10:09;;;;;;;5.47;2.38;;;;;;;;;;5126601;28;20212;-80
2022/02/11 16:12:36;;;;;;;6.03;2.08;;;;;;;;;;5127052;27;20192;-82
2022/02/11 16:15:03;;;;;;;9.18;2.88;;;;;;;;;;5134228;27;20195;-79
2022/02/11 16:17:32;;;;;;;8.63;2.60;;;;;;;;;;5138491;27;20211;-83
2022/02/11 16:20:05;;;;;;;5.22;2.03;;;;;;;;;;5150069;27;20641;-81
2022/02/11 16:22:32;;;;;;;3.75;2.42;;;;;;;;;;5110670;27;20283;-81
2022/02/11 16:24:59;;;;;;;6.30;2.10;;;;;;;;;;5114630;28;20915;-81
2022/02/11 16:27:28;;;;;;;8.73;2.60;;;;;;;;;;5133606;27;20189;-79
2022/02/11 16:29:55;;;;;;;6.47;2.30;;;;;;;;;;5128579;27;20639;-78
2022/02/11 16:32:22;;;;;;;5.30;3.47;;;;;;;;;;5136611;27;20741;-81
2022/02/11 16:34:49;;;;;;;9.88;3.85;;;;;;;;;;5142964;27;20188;-79
2022/02/11 16:37:16;;;;;;;10.10;3.75;;;;;;;;;;5150552;27;20200;-82
2022/02/11 16:39:43;;;;;;;10.18;3.30;;;;;;;;;;5111994;27;20220;-82
2022/02/11 16:42:11;;;;;;;3.92;2.40;;;;;;;;;;5121090;28;20183;-77
2022/02/11 16:44:40;;;;;;;5.30;1.60;;;;;;;;;;5122463;27;20711;-77
2022/02/11 16:47:07;;;;;;;5.10;2.47;;;;;;;;;;5134631;27;20202;-81
2022/02/11 16:49:34;;;;;;;7.82;3.35;;;;;;;;;;5138879;27;20273;-77
2022/02/11 16:52:06;;;;;;;6.38;2.45;;;;;;;;;;5123743;27;20204;-80
2022/02/11 16:54:33;;;;;;;6.57;2.75;;;;;;;;;;5126059;27;20579;-82
2022/02/11 16:57:00;;;;;;;4.30;2.15;;;;;;;;;;5129970;27;20196;-78
2022/02/11 16:59:27;;;;;;;7.15;2.47;;;;;;;;;;5128610;27;20243;-80
2022/02/11 17:01:56;;;;;;;8.85;2.72;;;;;;;;;;5132152;27;20669;-81
2022/02/11 17:04:23;;;;;;;6.22;2.90;;;;;;;;;;5135445;27;20194;-80
2022/02/11 17:06:50;;;;;;;14.10;2.75;;;;;;;;;;5136402;27;20192;-81
2022/02/11 17:09:17;;;;;;;2.83;2.15;;;;;;;;;;5131621;27;20558;-79
2022/02/11 17:11:44;;;;;;;8.50;2.00;;;;;;;;;;5131703;27;20199;-77
2022/02/11 17:14:11;;;;;;;6.13;2.70;;;;;;;;;;5117210;27;20555;-78
2022/02/11 17:16:38;;;;;;;8.40;2.25;;;;;;;;;;5111390;28;20200;-79
2022/02/11 17:19:07;;;;;;;5.05;2.03;;;;;;;;;;5116277;27;20220;-77
2022/02/11 17:21:35;;;;;;;6.93;2.20;;;;;;;;;;5136454;27;20699;-79
2022/02/11 17:24:02;;;;;;;5.50;2.72;;;;;;;;;;5135942;27;20193;-79
2022/02/11 17:26:31;;;;;;;6.22;2.47;;;;;;;;;;5134792;27;20196;-79
2022/02/11 17:28:58;;;;;;;10.40;3.38;;;;;;;;;;5111458;27;20191;-79
2022/02/11 17:31:25;;;;;;;8.25;2.88;;;;;;;;;;5125408;27;20208;-76
2022/02/11 17:33:53;;;;;;;5.80;2.90;;;;;;;;;;5128843;27;20524;-81
2022/02/11 17:36:21;;;;;;;7.95;3.03;;;;;;;;;;5129434;27;20202;-82
2022/02/11 17:38:48;;;;;;;4.03;2.30;;;;;;;;;;5131515;27;20238;-80
2022/02/11 17:41:15;;;;;;;7.35;3.00;;;;;;;;;;5134105;27;20208;-78
2022/02/11 17:43:43;;;;;;;11.27;3.72;;;;;;;;;;5130558;27;20195;-79
2022/02/11 17:46:10;;;;;;;10.93;3.72;;;;;;;;;;5129107;27;20707;-79
2022/02/11 17:48:37;;;;;;;7.80;3.38;;;;;;;;;;5130950;27;20191;-79
2022/02/11 17:51:04;;;;;;;7.68;3.28;;;;;;;;;;5125591;27;20211;-80
2022/02/11 17:53:32;;;;;;;8.15;2.97;;;;;;;;;;5110918;28;20204;-77
2022/02/11 17:55:59;;;;;;;7.72;3.92;;;;;;;;;;5127118;27;20589;-81